Time;durP1;ratioP1;P1;durP2;ratioP2;P2;SDS_P1;SDS_P2;PMS_P1;PMS_P2;Temp;Humidity;BMP_temperature;BMP_pressure;BME280_temperature;BME280_humidity;BME280_pressure;Samples;Min_cycle;Max_cycle;Signal;HPM_P1;HPM_P2
2021/08/05 00:08:32;;;;;;;3.60;1.45;;;26.10;28.10;;;;;;21239235;27;80730;-67
2021/08/05 00:18:34;;;;;;;3.75;1.65;;;26.00;28.20;;;;;;21221208;27;80898;-69
2021/08/05 00:28:36;;;;;;;6.13;2.38;;;25.90;28.60;;;;;;21220262;27;80672;-66
2021/08/05 00:38:38;;;;;;;5.38;1.90;;;25.80;29.20;;;;;;21237681;27;80097;-66
2021/08/05 00:48:40;;;;;;;5.38;1.85;;;25.60;29.30;;;;;;21237658;27;81106;-68
2021/08/05 00:58:42;;;;;;;3.47;2.00;;;25.60;29.80;;;;;;21236031;27;81889;-67
2021/08/05 01:08:52;;;;;;;5.63;1.63;;;25.50;30.30;;;;;;21217718;27;81924;-68
2021/08/05 01:19:18;;;;;;;2.30;1.48;;;25.40;30.90;;;;;;21235250;27;80745;-68
2021/08/05 01:29:20;;;;;;;3.67;1.90;;;25.20;30.80;;;;;;21233626;27;79896;-65
2021/08/05 01:39:27;;;;;;;4.78;1.77;;;25.10;31.20;;;;;;21215803;27;81590;-66
2021/08/05 01:49:31;;;;;;;3.25;1.63;;;24.70;34.90;;;;;;21232658;27;81093;-66
2021/08/05 01:59:40;;;;;;;2.20;1.50;;;24.60;36.10;;;;;;21232605;27;81657;-66
2021/08/05 02:09:54;;;;;;;3.10;1.75;;;24.40;36.00;;;;;;21232058;27;81155;-68
2021/08/05 02:19:57;;;;;;;;;;;24.40;36.60;;;;;;21212661;27;82150;-66
2021/08/05 02:29:59;;;;;;;;;;;24.20;34.80;;;;;;21253241;27;82118;-69
2021/08/05 02:40:04;;;;;;;2.83;1.73;;;24.00;35.70;;;;;;21233439;27;75884;-66
2021/08/05 02:50:08;;;;;;;3.58;2.03;;;24.00;34.70;;;;;;21229899;27;79935;-70
2021/08/05 03:00:13;;;;;;;4.43;1.80;;;24.00;34.30;;;;;;21197582;27;81001;-66
2021/08/05 03:10:17;;;;;;;15.88;3.33;;;24.00;35.20;;;;;;21209985;27;80373;-66
2021/08/05 03:20:19;;;;;;;10.48;3.30;;;24.00;39.70;;;;;;21227429;27;80870;-67
2021/08/05 03:30:22;;;;;;;5.57;2.22;;;23.80;40.50;;;;;;21225193;27;81518;-66
2021/08/05 03:40:26;;;;;;;5.47;2.28;;;23.70;40.10;;;;;;21225921;27;79928;-67
2021/08/05 03:50:29;;;;;;;3.53;2.33;;;23.40;42.40;;;;;;21207989;27;81282;-67
2021/08/05 04:00:31;;;;;;;11.25;2.83;;;23.40;41.00;;;;;;21224887;27;81750;-68
2021/08/05 04:10:34;;;;;;;8.82;3.30;;;23.40;43.50;;;;;;21205631;27;80741;-68
2021/08/05 04:20:38;;;;;;;3.85;2.45;;;23.30;42.80;;;;;;21223834;27;81880;-66
2021/08/05 04:30:40;;;;;;;5.13;2.20;;;23.20;38.50;;;;;;21203937;27;82886;-67
2021/08/05 04:40:44;;;;;;;4.75;2.15;;;23.20;37.10;;;;;;21208870;27;82201;-68
2021/08/05 04:50:50;;;;;;;12.77;3.85;;;23.10;37.40;;;;;;21218414;27;80178;-68
2021/08/05 05:00:53;;;;;;;7.88;3.10;;;22.90;38.30;;;;;;21217054;27;81833;-65
2021/08/05 05:10:56;;;;;;;5.25;2.58;;;22.70;38.40;;;;;;21217122;27;80488;-65
2021/08/05 05:21:00;;;;;;;10.75;3.55;;;22.50;40.30;;;;;;21216446;27;81072;-68
2021/08/05 05:31:02;;;;;;;3.65;2.22;;;22.50;42.10;;;;;;21216000;27;81833;-68
2021/08/05 05:41:04;;;;;;;13.25;3.25;;;22.20;41.80;;;;;;21213351;27;81080;-68
2021/08/05 05:51:05;;;;;;;9.82;2.90;;;22.30;40.70;;;;;;21233554;27;80010;-69
2021/08/05 06:01:06;;;;;;;9.83;3.37;;;22.40;40.00;;;;;;21209798;27;81211;-66
2021/08/05 06:11:07;;;;;;;10.07;3.07;;;22.40;40.40;;;;;;21212817;27;79928;-65
2021/08/05 06:21:08;;;;;;;7.90;3.00;;;22.50;40.00;;;;;;21210977;27;80324;-66
2021/08/05 06:31:10;;;;;;;11.03;2.80;;;22.60;39.80;;;;;;21208175;27;79938;-68
2021/08/05 06:41:11;;;;;;;4.15;2.63;;;22.70;39.60;;;;;;21230490;27;80424;-68
2021/08/05 06:51:12;;;;;;;6.50;2.60;;;22.80;39.00;;;;;;21211676;27;80468;-66
2021/08/05 07:01:13;;;;;;;7.97;2.87;;;23.00;38.70;;;;;;21207401;27;80796;-67
2021/08/05 07:11:13;;;;;;;6.60;3.27;;;23.30;38.40;;;;;;21205412;27;80381;-65
2021/08/05 07:21:14;;;;;;;9.83;3.37;;;23.60;38.30;;;;;;21229103;27;80031;-66
2021/08/05 07:31:15;;;;;;;11.57;3.03;;;23.90;39.10;;;;;;21228481;27;80322;-66
2021/08/05 07:41:18;;;;;;;22.08;3.40;;;24.30;37.70;;;;;;21209054;27;80652;-67
2021/08/05 07:51:22;;;;;;;16.05;3.20;;;24.50;37.40;;;;;;21209119;27;80108;-66
2021/08/05 08:01:24;;;;;;;12.73;3.30;;;24.90;36.50;;;;;;21208226;27;81117;-67
2021/08/05 08:11:27;;;;;;;9.63;2.83;;;25.20;35.90;;;;;;21207910;27;81151;-66
2021/08/05 08:21:28;;;;;;;11.43;3.17;;;25.50;35.10;;;;;;21219736;27;80626;-69
2021/08/05 08:31:31;;;;;;;11.93;2.90;;;25.90;34.40;;;;;;21221359;27;79888;-67
2021/08/05 08:41:35;;;;;;;9.88;3.67;;;26.20;33.80;;;;;;21239212;27;80549;-70
2021/08/05 08:51:37;;;;;;;13.35;2.88;;;26.60;33.40;;;;;;21238208;27;80997;-68
2021/08/05 09:01:40;;;;;;;6.80;2.50;;;26.90;33.00;;;;;;21219450;27;80736;-71
2021/08/05 09:11:41;;;;;;;5.90;2.45;;;27.30;32.90;;;;;;21218991;27;80987;-67
2021/08/05 09:21:57;;;;;;;4.68;1.63;;;27.60;32.00;;;;;;21219680;27;81081;-68
2021/08/05 09:32:01;;;;;;;3.08;2.15;;;27.90;31.40;;;;;;21217527;27;80815;-66
2021/08/05 09:42:08;;;;;;;3.50;1.85;;;28.40;30.90;;;;;;21218177;27;80000;-67
2021/08/05 09:52:13;;;;;;;4.57;1.55;;;28.50;30.30;;;;;;21217381;27;80627;-68
2021/08/05 10:02:15;;;;;;;5.07;1.83;;;28.90;29.80;;;;;;21236403;27;80119;-66
2021/08/05 10:12:31;;;;;;;3.38;1.40;;;29.20;29.20;;;;;;21234393;27;80438;-67
2021/08/05 10:22:33;;;;;;;3.33;1.85;;;30.20;27.90;;;;;;21217942;27;82459;-69
2021/08/05 10:32:36;;;;;;;4.75;1.95;;;30.80;27.30;;;;;;21233636;27;79856;-69
2021/08/05 10:42:45;;;;;;;4.28;1.70;;;31.80;26.70;;;;;;21213786;27;81822;-64
2021/08/05 10:52:52;;;;;;;3.95;1.70;;;33.10;25.70;;;;;;21212110;27;81019;-65
2021/08/05 11:02:57;;;;;;;4.28;1.75;;;34.50;23.40;;;;;;21211890;27;80649;-70
2021/08/05 11:13:09;;;;;;;3.85;1.77;;;36.00;21.20;;;;;;21213394;27;79845;-67
2021/08/05 11:23:34;;;;;;;4.05;1.63;;;38.10;19.20;;;;;;21211719;27;80358;-70
2021/08/05 11:33:40;;;;;;;6.75;2.10;;;41.50;17.00;;;;;;21210190;27;81093;-66
2021/08/05 11:43:42;;;;;;;3.53;1.60;;;44.90;14.70;;;;;;21226581;27;79762;-67
2021/08/05 11:53:45;;;;;;;3.60;1.73;;;46.80;13.70;;;;;;21216783;27;80729;-65
2021/08/05 12:03:47;;;;;;;3.90;2.00;;;48.60;12.90;;;;;;21222447;27;80923;-69
2021/08/05 12:13:51;;;;;;;3.88;2.10;;;48.80;12.80;;;;;;21223373;27;81105;-66
2021/08/05 12:23:54;;;;;;;2.83;2.00;;;50.70;12.00;;;;;;21240697;27;80250;-66
2021/08/05 12:33:56;;;;;;;3.72;2.15;;;51.50;11.90;;;;;;21221636;27;80883;-69
2021/08/05 12:44:11;;;;;;;2.88;2.33;;;52.60;11.30;;;;;;21243572;27;80876;-68
2021/08/05 12:54:18;;;;;;;2.75;2.42;;;53.80;10.80;;;;;;21222551;27;81527;-68
2021/08/05 13:04:25;;;;;;;3.08;2.78;;;55.40;10.40;;;;;;21240167;27;81959;-67
2021/08/05 13:14:34;;;;;;;3.85;3.55;;;56.40;10.40;;;;;;21238045;27;80773;-70
2021/08/05 13:24:37;;;;;;;4.05;3.67;;;57.30;10.30;;;;;;21239739;27;80004;-66
2021/08/05 13:34:55;;;;;;;5.95;3.60;;;57.20;10.10;;;;;;21235230;27;81667;-68
2021/08/05 13:44:59;;;;;;;4.63;4.22;;;58.30;9.90;;;;;;21216025;27;81051;-67
2021/08/05 13:55:00;;;;;;;5.53;4.18;;;56.10;10.30;;;;;;21213558;27;81553;-67
2021/08/05 14:05:04;;;;;;;5.18;4.47;;;56.30;10.30;;;;;;21213552;27;80780;-67
2021/08/05 14:15:07;;;;;;;5.30;4.90;;;57.10;10.30;;;;;;21212884;27;81068;-68
2021/08/05 14:25:11;;;;;;;5.75;5.28;;;58.60;10.10;;;;;;21231460;27;80512;-66
2021/08/05 14:35:14;;;;;;;5.65;4.95;;;59.20;9.80;;;;;;21211551;27;81059;-67
2021/08/05 14:45:16;;;;;;;5.63;5.32;;;59.20;9.90;;;;;;21212415;27;80627;-68
2021/08/05 14:55:18;;;;;;;6.63;5.30;;;59.80;9.70;;;;;;21210244;27;79935;-67
2021/08/05 15:05:20;;;;;;;;;;;57.60;10.00;;;;;;21210244;27;81751;-68
2021/08/05 15:15:23;;;;;;;4.55;3.20;;;52.60;11.10;;;;;;21231326;27;81105;-67
2021/08/05 15:25:26;;;;;;;3.03;2.80;;;45.60;13.60;;;;;;21208728;27;80051;-70
2021/08/05 15:35:27;;;;;;;4.20;2.20;;;43.60;14.50;;;;;;21226158;27;81630;-67
2021/08/05 15:45:30;;;;;;;2.28;1.73;;;42.00;15.40;;;;;;21224090;27;80810;-66
2021/08/05 15:55:32;;;;;;;3.72;1.77;;;40.80;16.10;;;;;;21205745;27;81220;-67
2021/08/05 16:05:34;;;;;;;3.95;1.75;;;40.30;16.30;;;;;;21206447;27;81864;-66
2021/08/05 16:15:36;;;;;;;4.45;2.35;;;39.90;16.70;;;;;;21223360;27;79922;-67
2021/08/05 16:25:37;;;;;;;2.83;1.80;;;42.90;14.50;;;;;;21223070;27;81968;-67
2021/08/05 16:35:40;;;;;;;2.88;1.98;;;48.60;12.40;;;;;;21226968;27;81127;-70
2021/08/05 16:45:42;;;;;;;6.53;2.13;;;43.10;14.30;;;;;;21217585;27;81298;-67
2021/08/05 16:55:43;;;;;;;4.40;1.65;;;41.10;15.50;;;;;;21235570;27;80765;-66
2021/08/05 17:05:45;;;;;;;4.65;2.00;;;39.30;16.50;;;;;;21235707;27;80945;-67
2021/08/05 17:15:47;;;;;;;7.55;2.35;;;38.90;16.90;;;;;;21234718;27;81111;-67
2021/08/05 17:25:48;;;;;;;9.02;1.83;;;39.00;17.00;;;;;;21233667;27;80752;-66
2021/08/05 17:35:50;;;;;;;3.08;1.10;;;38.10;17.80;;;;;;21215153;27;80866;-69
2021/08/05 17:45:52;;;;;;;3.10;1.42;;;37.40;18.30;;;;;;21231001;27;80055;-65
2021/08/05 17:55:56;;;;;;;3.80;1.27;;;36.90;18.70;;;;;;21231020;27;80496;-66
2021/08/05 18:05:57;;;;;;;6.15;1.90;;;38.50;17.40;;;;;;21213323;27;79851;-67
2021/08/05 18:15:59;;;;;;;8.02;2.92;;;39.60;17.10;;;;;;21231139;27;80030;-68
2021/08/05 18:26:00;;;;;;;3.72;1.25;;;40.20;17.10;;;;;;21230614;27;80633;-66
2021/08/05 18:36:02;;;;;;;4.40;2.28;;;38.70;17.80;;;;;;21211643;27;81149;-66
2021/08/05 18:46:05;;;;;;;3.50;1.58;;;37.40;18.90;;;;;;21211117;27;80715;-65
2021/08/05 18:56:07;;;;;;;4.32;1.08;;;36.00;20.50;;;;;;21210545;27;81951;-68
2021/08/05 19:06:09;;;;;;;5.38;1.55;;;34.70;21.30;;;;;;21210086;27;80042;-66
2021/08/05 19:16:11;;;;;;;6.32;1.65;;;34.00;21.90;;;;;;21209112;27;80715;-67
2021/08/05 19:26:16;;;;;;;3.17;1.48;;;33.50;22.40;;;;;;21209131;27;80580;-66
2021/08/05 19:36:18;;;;;;;5.22;1.60;;;33.10;23.10;;;;;;21228128;27;80016;-67
2021/08/05 19:46:20;;;;;;;5.07;1.88;;;32.70;23.30;;;;;;21208467;27;80430;-68
2021/08/05 19:56:21;;;;;;;6.15;2.20;;;32.40;23.80;;;;;;21208781;27;81871;-67
2021/08/05 20:06:23;;;;;;;6.85;3.75;;;32.20;24.00;;;;;;21224899;27;81116;-68
2021/08/05 20:16:25;;;;;;;4.25;2.05;;;31.90;24.60;;;;;;21218520;27;80362;-66
2021/08/05 20:26:27;;;;;;;10.82;4.97;;;31.50;25.00;;;;;;21239674;27;82092;-69
2021/08/05 20:36:28;;;;;;;5.75;2.20;;;31.30;25.20;;;;;;21219846;27;81411;-67
2021/08/05 20:46:31;;;;;;;12.05;5.72;;;31.00;26.00;;;;;;21237975;27;80735;-65
2021/08/05 20:56:32;;;;;;;6.82;1.42;;;30.80;26.10;;;;;;21219955;27;81278;-66
2021/08/05 21:06:34;;;;;;;2.50;1.35;;;30.70;25.60;;;;;;21219090;27;81862;-67
2021/08/05 21:16:36;;;;;;;5.25;1.30;;;30.40;26.00;;;;;;21236157;27;80722;-67
2021/08/05 21:26:39;;;;;;;3.90;1.50;;;30.20;26.10;;;;;;21236065;27;80810;-67
2021/08/05 21:36:41;;;;;;;7.93;1.30;;;30.10;26.20;;;;;;21217924;27;81827;-66
2021/08/05 21:46:43;;;;;;;5.95;1.00;;;29.90;26.60;;;;;;21217989;27;81957;-69
2021/08/05 21:56:46;;;;;;;5.28;1.50;;;29.70;27.10;;;;;;21216144;27;81690;-70
2021/08/05 22:06:48;;;;;;;3.17;1.00;;;29.50;27.20;;;;;;21233698;27;80069;-67
2021/08/05 22:16:50;;;;;;;6.93;1.88;;;29.40;27.60;;;;;;21214293;27;80714;-68
2021/08/05 22:26:53;;;;;;;8.13;1.33;;;29.20;28.00;;;;;;21213661;27;81054;-67
2021/08/05 22:36:54;;;;;;;6.32;1.30;;;29.00;28.30;;;;;;21230397;27;80782;-66
2021/08/05 22:46:56;;;;;;;5.45;1.83;;;28.90;28.70;;;;;;21212706;27;80934;-69
2021/08/05 22:56:59;;;;;;;5.63;1.60;;;28.70;29.20;;;;;;21230032;27;80471;-67
2021/08/05 23:07:01;;;;;;;4.30;1.08;;;28.50;29.40;;;;;;21229234;27;81888;-67
2021/08/05 23:17:03;;;;;;;6.82;1.80;;;28.40;29.80;;;;;;21209758;27;81283;-67
2021/08/05 23:27:05;;;;;;;4.18;1.23;;;28.20;30.40;;;;;;21228189;27;80896;-68
2021/08/05 23:37:07;;;;;;;8.32;2.13;;;28.10;30.90;;;;;;21208851;27;81010;-65
2021/08/05 23:47:09;;;;;;;5.75;1.38;;;27.90;31.60;;;;;;21207286;27;79914;-65
2021/08/05 23:57:11;;;;;;;10.52;1.80;;;27.70;31.90;;;;;;21206850;27;81094;-68
